Terminal Aerodrome Forecast
Issued by NWS

Home | Current Version | Previous Version | Text Only | Print | Product List | Glossary On
Versions: 1 2 3 4 5 6 7 8 9 10 11 12 13 14
000
FTUS45 KRIW 050538
TAFCOD
TAF
KCOD 050538Z 0506/0606 34010KT P6SM VCTS SCT080CB BKN110
     FM050800 28007KT P6SM SCT100
     FM051700 16009KT P6SM FEW060
     FM052000 VRB15G25KT P6SM VCTS SCT070CB BKN100
     FM060000 28017G27KT P6SM VCSH SCT070
     FM060500 27014G20KT P6SM SKC
      AMD LTD TO CLD VIS AND WIND=

USA.gov is the U.S. government's official web portal to all federal, state and local government web resources and services.